Bella Vista, AR

5:29 PM CST on February 12, 2016 (GMT -0600)
Bella Vista Country Club | | Change Station
CLOSE
Current Station
Personal Weather Station
Location: Bella Vista, AR
Elevation: 1020 ft
Nearby Weather Stations

Elev 1020 ft 36.48 °N, 94.25 °W | Updated 96 days ago

Clear
Clear
39 °F
Feels Like 34 °F
N
7
Wind Variable Wind from North
Gusts 13 mph

Today
High -- | Low -- °F
--% Chance of Precip.
Yesterday
High -- | Low -- °F
Precip. -- in
Pressure 30.38 in
Visibility 10.0 miles
Clouds Clear
Windchill 34 °F
Dew Point 23 °F
Humidity 52%
Rainfall in
Snow Depth Not available.
7:08 AM 5:54 PM
Waxing Crescent, 24% visible
METAR KVBT 122315Z AUTO 01007KT 10SM CLR 07/M06 A3038 RMK AO1
Pressure 30.38 in
Visibility 10.0 miles
Clouds Clear
Windchill 34 °F
Dew Point 23 °F
Humidity 52%
Rainfall in
Snow Depth Not available.
7:08 AM 5:54 PM
Waxing Crescent, 24% visible
METAR KVBT 122315Z AUTO 01007KT 10SM CLR 07/M06 A3038 RMK AO1

10-Day Weather Forecast

Almanac

Astronomy

Feb. 12, 2016 Rise Set
Actual Time
Civil Twilight
Nautical Twilight
Astronomical Twilight
Moon
Length of Visible Light
Length of Day
Tomorrow will be .
, % of the Moon is Illuminated

Today's Extremes

State Highs State Lows

Community

WunderPhotos

Upload Photos

1,892,436 photos uploaded!

WunderBlog® & News

Nearby

Air Quality

  Air Quality AQ Index Pollutant
Not available.

Snow Depth

Station Depth Elevation

Earthquake Activity

City Distance Mag. Time & Date
Minimum magnitude displayed is 2.5.

Coastal Water Temperatures

Place Temperature

Stations

Nearby Weather Stations

Station Location Temp. Windchill Dew Point Humidity Wind Precip. Elev Updated Type
                   

Watches & Warnings

There are currently no watches in effect.